createdAt,value
2023-05-14T00:00:15.400Z,7.47
2023-05-14T00:03:18.531Z,7.60
2023-05-14T00:06:21.516Z,7.37
2023-05-14T00:09:26.185Z,7.33
2023-05-14T00:12:30.053Z,7.30
2023-05-14T00:15:34.366Z,7.40
2023-05-14T00:18:37.763Z,7.10
2023-05-14T00:21:40.952Z,6.80
2023-05-14T00:24:47.987Z,6.80
2023-05-14T00:27:51.026Z,6.50
2023-05-14T00:30:55.266Z,6.63
2023-05-14T00:33:58.303Z,6.67
2023-05-14T00:37:01.340Z,7.13
2023-05-14T00:40:08.486Z,7.17
2023-05-14T00:43:11.554Z,7.00
2023-05-14T00:46:15.713Z,7.23
2023-05-14T00:49:19.302Z,7.07
2023-05-14T00:52:22.550Z,7.60
2023-05-14T00:55:27.695Z,7.23
2023-05-14T00:58:32.944Z,6.87
2023-05-14T01:01:36.520Z,7.10
2023-05-14T01:04:39.974Z,8.00
2023-05-14T01:07:54.088Z,7.77
2023-05-14T01:11:05.070Z,7.00
2023-05-14T01:14:22.743Z,7.50
2023-05-14T01:17:29.897Z,7.33
2023-05-14T01:20:32.919Z,7.33
2023-05-14T01:23:37.709Z,7.30
2023-05-14T01:26:40.933Z,6.73
2023-05-14T01:29:49.011Z,7.13
2023-05-14T01:32:56.627Z,7.37
2023-05-14T01:36:00.041Z,6.87
2023-05-14T01:39:05.240Z,7.00
2023-05-14T01:42:08.953Z,6.17
2023-05-14T01:45:12.493Z,6.37
2023-05-14T01:48:16.502Z,7.03
2023-05-14T01:51:19.624Z,6.53
2023-05-14T01:54:24.317Z,5.87
2023-05-14T01:57:27.332Z,6.90
2023-05-14T02:00:30.551Z,7.13
2023-05-14T02:03:33.546Z,6.50
2023-05-14T02:06:36.670Z,7.43
2023-05-14T02:09:41.238Z,6.67
2023-05-14T02:12:44.297Z,7.23
2023-05-14T02:15:47.316Z,7.20
2023-05-14T02:18:50.373Z,6.23
2023-05-14T02:21:53.495Z,7.00
2023-05-14T02:24:57.827Z,7.60
2023-05-14T02:28:02.293Z,6.73
2023-05-14T02:31:05.384Z,7.20
2023-05-14T02:34:08.465Z,6.80
2023-05-14T02:37:11.488Z,6.03
2023-05-14T02:40:18.757Z,7.53
2023-05-14T02:43:21.761Z,6.40
2023-05-14T02:46:24.941Z,6.07
2023-05-14T02:49:28.079Z,6.40
2023-05-14T02:52:31.076Z,7.27
2023-05-14T02:55:36.190Z,6.40
2023-05-14T02:58:39.317Z,6.40
2023-05-14T03:01:42.420Z,6.40
2023-05-14T03:04:46.755Z,6.37
2023-05-14T03:07:51.242Z,5.80
2023-05-14T03:10:55.870Z,6.90
2023-05-14T03:13:58.830Z,6.23
2023-05-14T03:17:04.067Z,6.50
2023-05-14T03:20:08.305Z,5.90
2023-05-14T03:23:11.326Z,5.97
2023-05-14T03:26:15.717Z,6.17
2023-05-14T03:29:18.965Z,6.07
2023-05-14T03:32:22.336Z,6.30
2023-05-14T03:35:25.587Z,7.00
2023-05-14T03:38:28.779Z,7.20
2023-05-14T03:41:33.590Z,6.80
2023-05-14T03:44:36.898Z,6.53
2023-05-14T03:47:39.984Z,6.63
2023-05-14T03:50:43.243Z,6.33
2023-05-14T03:53:46.337Z,8.27
2023-05-14T03:56:50.702Z,6.23
2023-05-14T03:59:53.791Z,5.97
2023-05-14T04:02:56.991Z,6.63
2023-05-14T04:06:00.195Z,6.57
2023-05-14T04:09:03.400Z,5.87
2023-05-14T04:12:09.491Z,6.57
2023-05-14T04:15:13.862Z,6.50
2023-05-14T04:18:17.185Z,6.00
2023-05-14T04:21:20.193Z,6.03
2023-05-14T04:24:23.179Z,5.53
2023-05-14T04:27:27.900Z,5.80
2023-05-14T04:30:31.106Z,6.40
2023-05-14T04:33:34.194Z,5.73
2023-05-14T04:36:37.236Z,6.00
2023-05-14T04:39:40.637Z,5.77
2023-05-14T04:42:45.096Z,6.47
2023-05-14T04:45:48.142Z,6.67
2023-05-14T04:48:51.809Z,7.10
2023-05-14T04:51:54.849Z,6.63
2023-05-14T04:54:57.867Z,6.83
2023-05-14T04:58:02.384Z,6.10
2023-05-14T05:01:06.339Z,7.17
2023-05-14T05:04:09.602Z,6.40
2023-05-14T05:07:16.094Z,7.17
2023-05-14T05:10:19.068Z,7.00
2023-05-14T05:13:26.728Z,6.17
2023-05-14T05:16:29.910Z,6.80
2023-05-14T05:19:43.035Z,6.87
2023-05-14T05:22:47.478Z,7.00
2023-05-14T05:25:50.926Z,7.20
2023-05-14T05:28:55.348Z,7.03
2023-05-14T05:31:58.611Z,7.30
2023-05-14T05:35:05.029Z,6.60
2023-05-14T05:38:08.013Z,6.93
2023-05-14T05:41:11.054Z,6.57
2023-05-14T05:44:15.512Z,7.07
2023-05-14T05:47:18.825Z,6.63
2023-05-14T05:50:22.791Z,6.90
2023-05-14T05:53:26.023Z,6.70
2023-05-14T05:56:29.257Z,6.57
2023-05-14T05:59:33.652Z,6.97
2023-05-14T06:02:36.932Z,6.50
2023-05-14T06:05:40.157Z,6.50
2023-05-14T06:08:43.507Z,6.10
2023-05-14T06:11:48.876Z,6.03
2023-05-14T06:14:55.231Z,6.53
2023-05-14T06:17:58.510Z,6.77
2023-05-14T06:21:01.577Z,7.03
2023-05-14T06:24:04.820Z,6.47
2023-05-14T06:27:08.112Z,7.30
2023-05-14T06:30:14.135Z,7.00
2023-05-14T06:33:18.686Z,6.97
2023-05-14T06:36:23.057Z,6.93
2023-05-14T06:39:26.015Z,6.40
2023-05-14T06:42:31.816Z,5.97
2023-05-14T06:45:36.582Z,6.27
2023-05-14T06:48:39.955Z,6.50
2023-05-14T06:51:43.078Z,6.80
2023-05-14T06:54:47.617Z,6.20
2023-05-14T06:57:51.169Z,5.83
2023-05-14T07:00:55.589Z,6.47
2023-05-14T07:03:58.727Z,6.40
2023-05-14T07:07:05.704Z,5.80
2023-05-14T07:10:09.406Z,6.10
2023-05-14T07:13:12.646Z,6.27
2023-05-14T07:16:17.186Z,5.67
2023-05-14T07:19:20.278Z,6.23
2023-05-14T07:22:23.406Z,5.43
2023-05-14T07:25:26.539Z,6.17
2023-05-14T07:28:29.617Z,5.30
2023-05-14T07:31:34.010Z,5.67
2023-05-14T07:34:37.130Z,5.60
2023-05-14T07:37:40.486Z,5.67
2023-05-14T07:40:43.662Z,5.90
2023-05-14T07:43:48.222Z,6.10
2023-05-14T07:46:52.697Z,5.60
2023-05-14T07:49:56.616Z,5.33
2023-05-14T07:52:59.558Z,5.30
2023-05-14T07:56:02.593Z,5.47
2023-05-14T07:59:07.018Z,5.40
2023-05-14T08:02:12.838Z,5.30
2023-05-14T08:05:16.594Z,4.97
2023-05-14T08:08:19.724Z,4.50
2023-05-14T08:11:23.037Z,4.80
2023-05-14T08:14:26.152Z,5.23
2023-05-14T08:17:30.628Z,5.00
2023-05-14T08:20:33.851Z,4.47
2023-05-14T08:23:36.870Z,4.20
2023-05-14T08:26:39.990Z,4.97
2023-05-14T08:29:43.041Z,4.50
2023-05-14T08:32:47.505Z,4.00
2023-05-14T08:35:51.786Z,4.50
2023-05-14T08:38:54.916Z,4.37
2023-05-14T08:41:59.078Z,4.17
2023-05-14T08:45:03.641Z,4.20
2023-05-14T08:48:12.205Z,4.00
2023-05-14T08:51:15.933Z,4.40
2023-05-14T08:54:19.220Z,4.53
2023-05-14T08:57:24.727Z,3.93
2023-05-14T09:00:28.054Z,4.40
2023-05-14T09:03:33.265Z,4.70
2023-05-14T09:06:37.868Z,4.83
2023-05-14T09:09:45.007Z,4.00
2023-05-14T09:12:48.172Z,4.10
2023-05-14T09:15:51.729Z,4.23
2023-05-14T09:18:56.395Z,4.00
2023-05-14T09:22:00.195Z,4.33
2023-05-14T09:25:05.961Z,4.07
2023-05-14T09:28:13.632Z,4.17
2023-05-14T09:31:16.731Z,4.30
2023-05-14T09:34:27.963Z,4.47
2023-05-14T09:37:30.959Z,4.17
2023-05-14T09:40:34.056Z,4.63
2023-05-14T09:43:37.134Z,4.00
2023-05-14T09:46:40.136Z,4.57
2023-05-14T09:49:44.506Z,4.37
2023-05-14T09:52:47.606Z,4.60
2023-05-14T09:55:50.747Z,4.30
2023-05-14T09:58:55.015Z,4.20
2023-05-14T10:01:59.370Z,4.00
2023-05-14T10:05:06.993Z,4.40
2023-05-14T10:08:14.703Z,4.07
2023-05-14T10:11:22.286Z,4.63
2023-05-14T10:14:28.259Z,4.30
2023-05-14T10:17:35.833Z,4.23
2023-05-14T10:20:41.494Z,4.33
2023-05-14T10:23:44.860Z,4.53
2023-05-14T10:26:48.682Z,4.43
2023-05-14T10:29:55.374Z,4.37
2023-05-14T10:33:09.431Z,4.00
2023-05-14T10:36:14.215Z,4.30
2023-05-14T10:39:17.280Z,4.43
2023-05-14T10:42:23.389Z,3.93
2023-05-14T10:45:27.925Z,4.20
2023-05-14T10:48:31.128Z,4.00
2023-05-14T10:51:37.721Z,4.33
2023-05-14T10:54:41.083Z,4.40
2023-05-14T10:57:45.548Z,4.03
2023-05-14T11:00:50.032Z,4.30
2023-05-14T11:03:55.906Z,4.20
2023-05-14T11:07:04.265Z,4.20
2023-05-14T11:10:09.211Z,4.27
2023-05-14T11:13:13.251Z,4.23
2023-05-14T11:16:23.199Z,4.60
2023-05-14T11:19:27.235Z,4.30
2023-05-14T11:22:31.686Z,4.50
2023-05-14T11:25:34.717Z,4.30
2023-05-14T11:28:38.640Z,3.93
2023-05-14T11:31:42.347Z,4.40
2023-05-14T11:34:46.231Z,4.77
2023-05-14T11:37:53.208Z,4.20
2023-05-14T11:40:56.672Z,4.20
2023-05-14T11:44:00.150Z,4.23
2023-05-14T11:47:04.994Z,4.30
2023-05-14T11:50:09.796Z,4.50
2023-05-14T11:53:18.292Z,4.97
2023-05-14T11:56:22.735Z,4.40
2023-05-14T11:59:26.216Z,5.10
2023-05-14T12:02:30.384Z,4.80
2023-05-14T12:05:34.254Z,4.40
2023-05-14T12:08:38.823Z,4.53
2023-05-14T12:11:41.796Z,4.20
2023-05-14T12:14:45.549Z,4.50
2023-05-14T12:17:51.886Z,4.53
2023-05-14T12:20:55.284Z,4.53
2023-05-14T12:24:01.005Z,4.47
2023-05-14T12:27:04.536Z,4.90
2023-05-14T12:33:16.290Z,4.57
2023-05-14T12:36:21.820Z,4.67
2023-05-14T12:39:26.807Z,4.60
2023-05-14T12:42:29.796Z,4.73
2023-05-14T12:45:32.801Z,4.70
2023-05-14T12:48:35.879Z,4.60
2023-05-14T12:51:39.271Z,4.33
2023-05-14T12:54:44.131Z,4.00
2023-05-14T12:57:47.181Z,4.70
2023-05-14T13:00:50.175Z,4.37
2023-05-14T13:03:53.280Z,3.80
2023-05-14T13:06:56.412Z,4.10
2023-05-14T13:10:00.936Z,4.30
2023-05-14T13:13:03.879Z,4.47
2023-05-14T13:16:07.679Z,4.10
2023-05-14T13:19:10.851Z,4.50
2023-05-14T13:22:14.367Z,4.27
2023-05-14T13:25:18.896Z,4.40
2023-05-14T13:28:21.970Z,4.10
2023-05-14T13:31:25.029Z,4.13
2023-05-14T13:34:28.326Z,4.30
2023-05-14T13:37:31.334Z,4.30
2023-05-14T13:40:35.850Z,4.07
2023-05-14T13:43:38.996Z,4.30
2023-05-14T13:46:42.869Z,4.23
2023-05-14T13:49:45.930Z,4.03
2023-05-14T13:52:48.971Z,4.37
2023-05-14T13:55:56.445Z,4.30
2023-05-14T13:58:59.642Z,4.23
2023-05-14T14:02:03.563Z,4.40
2023-05-14T14:05:08.227Z,4.17
2023-05-14T14:08:22.563Z,4.47
2023-05-14T14:11:28.422Z,4.40
2023-05-14T14:14:31.473Z,4.30
2023-05-14T14:17:35.006Z,4.20
2023-05-14T14:20:37.949Z,3.97
2023-05-14T14:23:40.965Z,4.30
2023-05-14T14:26:45.248Z,4.80
2023-05-14T14:29:48.595Z,4.67
2023-05-14T14:32:52.308Z,4.90
2023-05-14T14:35:56.233Z,4.80
2023-05-14T14:38:59.176Z,3.60
2023-05-14T14:42:03.559Z,3.70
2023-05-14T14:45:07.541Z,3.77
2023-05-14T14:48:28.133Z,3.93
2023-05-14T14:51:31.355Z,4.00
2023-05-14T14:54:34.509Z,4.30
2023-05-14T14:57:38.870Z,4.00
2023-05-14T15:00:42.074Z,4.03
2023-05-14T15:03:45.683Z,3.93
2023-05-14T15:06:49.053Z,4.10
2023-05-14T15:09:52.268Z,3.90
2023-05-14T15:12:58.458Z,3.97
2023-05-14T15:16:02.063Z,4.60
2023-05-14T15:19:05.261Z,3.80
2023-05-14T15:22:08.432Z,4.43
2023-05-14T15:25:14.903Z,4.60
2023-05-14T15:28:19.553Z,8.37
2023-05-14T15:31:22.952Z,4.67
2023-05-14T15:34:26.393Z,4.77
2023-05-14T15:37:29.410Z,4.77
2023-05-14T15:40:33.165Z,4.73
2023-05-14T15:43:37.517Z,4.70
2023-05-14T15:46:40.468Z,4.83
2023-05-14T15:49:43.581Z,4.13
2023-05-14T15:52:46.853Z,4.23
2023-05-14T15:55:50.064Z,4.33
2023-05-14T15:58:54.505Z,4.20
2023-05-14T16:01:57.542Z,4.33
2023-05-14T16:05:00.656Z,5.00
2023-05-14T16:08:03.698Z,4.60
2023-05-14T16:11:07.704Z,4.23
2023-05-14T16:14:12.187Z,4.70
2023-05-14T16:17:15.375Z,5.60
2023-05-14T16:20:18.571Z,5.07
2023-05-14T16:23:21.816Z,5.40
2023-05-14T16:26:26.097Z,4.40
2023-05-14T16:29:31.204Z,4.10
2023-05-14T16:32:34.227Z,4.50
2023-05-14T16:35:37.345Z,4.47
2023-05-14T16:38:52.389Z,4.50
2023-05-14T16:42:03.645Z,4.77
2023-05-14T16:45:09.319Z,4.93
2023-05-14T16:48:12.361Z,4.87
2023-05-14T16:51:15.670Z,4.60
2023-05-14T16:54:18.632Z,4.53
2023-05-14T16:57:21.615Z,4.87
2023-05-14T17:00:26.413Z,4.50
2023-05-14T17:03:29.826Z,4.23
2023-05-14T17:06:32.806Z,4.90
2023-05-14T17:09:35.810Z,4.10
2023-05-14T17:12:38.845Z,4.90
2023-05-14T17:15:43.265Z,5.00
2023-05-14T17:18:46.955Z,4.47
2023-05-14T17:21:50.018Z,4.47
2023-05-14T17:24:53.036Z,4.00
2023-05-14T17:27:56.063Z,4.60
2023-05-14T17:31:00.395Z,4.60
2023-05-14T17:34:03.400Z,4.40
2023-05-14T17:37:06.514Z,4.97
2023-05-14T17:40:10.649Z,4.30
2023-05-14T17:43:13.947Z,4.93
2023-05-14T17:46:18.549Z,4.60
2023-05-14T17:49:21.641Z,4.90
2023-05-14T17:52:24.738Z,4.60
2023-05-14T17:55:28.178Z,4.80
2023-05-14T17:58:31.312Z,4.27
2023-05-14T18:01:35.867Z,5.13
2023-05-14T18:04:38.874Z,4.53
2023-05-14T18:07:42.036Z,5.00
2023-05-14T18:10:45.047Z,4.50
2023-05-14T18:13:48.085Z,4.37
2023-05-14T18:16:52.486Z,4.20
2023-05-14T18:19:55.552Z,5.00
2023-05-14T18:22:58.627Z,4.90
2023-05-14T18:26:01.604Z,4.70
2023-05-14T18:29:05.040Z,4.90
2023-05-14T18:32:09.763Z,4.73
2023-05-14T18:35:14.077Z,4.80
2023-05-14T18:38:17.849Z,4.20
2023-05-14T18:41:21.410Z,4.10
2023-05-14T18:44:26.987Z,4.50
2023-05-14T18:47:31.606Z,4.23
2023-05-14T18:50:34.985Z,4.03
2023-05-14T18:53:38.718Z,4.60
2023-05-14T18:56:46.816Z,4.80
2023-05-14T18:59:50.597Z,4.67
2023-05-14T19:02:55.097Z,4.90
2023-05-14T19:05:58.063Z,4.90
2023-05-14T19:09:01.709Z,5.30
2023-05-14T19:12:05.086Z,4.87
2023-05-14T19:15:08.959Z,4.70
2023-05-14T19:18:13.882Z,4.90
2023-05-14T19:21:17.137Z,4.63
2023-05-14T19:24:20.109Z,4.97
2023-05-14T19:27:24.366Z,5.10
2023-05-14T19:30:27.546Z,5.53
2023-05-14T19:33:32.241Z,5.20
2023-05-14T19:36:35.397Z,5.13
2023-05-14T19:39:38.546Z,4.73
2023-05-14T19:42:41.695Z,5.37
2023-05-14T19:45:45.872Z,5.87
2023-05-14T19:48:50.631Z,5.17
2023-05-14T19:51:53.662Z,5.63
2023-05-14T19:54:56.615Z,5.43
2023-05-14T19:57:59.720Z,5.80
2023-05-14T20:01:02.786Z,6.00
2023-05-14T20:04:07.334Z,5.90
2023-05-14T20:07:10.469Z,6.13
2023-05-14T20:10:14.138Z,5.90
2023-05-14T20:13:17.162Z,6.23
2023-05-14T20:16:20.341Z,6.30
2023-05-14T20:19:24.834Z,6.37
2023-05-14T20:22:29.422Z,6.67
2023-05-14T20:25:33.551Z,6.10
2023-05-14T20:28:37.232Z,5.90
2023-05-14T20:31:40.332Z,6.57
2023-05-14T20:34:44.891Z,6.33
2023-05-14T20:37:49.421Z,6.00
2023-05-14T20:40:52.499Z,6.07
2023-05-14T20:43:55.509Z,6.17
2023-05-14T20:46:58.530Z,6.23
2023-05-14T20:50:03.431Z,6.00
2023-05-14T20:53:06.546Z,6.10
2023-05-14T20:56:09.655Z,6.63
2023-05-14T20:59:15.399Z,6.80
2023-05-14T21:02:18.548Z,6.50
2023-05-14T21:05:23.565Z,6.27
2023-05-14T21:08:26.875Z,7.20
2023-05-14T21:11:30.288Z,7.37
2023-05-14T21:14:33.404Z,6.90
2023-05-14T21:17:36.490Z,7.03
2023-05-14T21:20:42.381Z,7.00
2023-05-14T21:23:45.962Z,6.47
2023-05-14T21:26:49.477Z,6.70
2023-05-14T21:29:53.354Z,6.40
2023-05-14T21:32:56.451Z,6.73
2023-05-14T21:36:00.801Z,6.20
2023-05-14T21:39:03.813Z,6.23
2023-05-14T21:42:07.463Z,7.10
2023-05-14T21:45:11.329Z,7.10
2023-05-14T21:48:14.467Z,6.67
2023-05-14T21:51:18.953Z,7.07
2023-05-14T21:54:22.267Z,7.20
2023-05-14T21:57:28.162Z,6.90
2023-05-14T22:00:31.773Z,6.60
2023-05-14T22:03:34.814Z,6.37
2023-05-14T22:06:39.209Z,7.53
2023-05-14T22:09:42.275Z,7.00
2023-05-14T22:12:46.290Z,7.10
2023-05-14T22:15:51.446Z,7.37
2023-05-14T22:19:01.337Z,7.43
2023-05-14T22:22:06.025Z,7.67
2023-05-14T22:25:09.936Z,7.90
2023-05-14T22:28:13.031Z,7.73
2023-05-14T22:31:16.043Z,8.27
2023-05-14T22:34:19.282Z,7.40
2023-05-14T22:37:23.651Z,7.27
2023-05-14T22:40:26.677Z,7.70
2023-05-14T22:43:29.689Z,8.10
2023-05-14T22:46:32.696Z,6.93
2023-05-14T22:49:35.740Z,8.43
2023-05-14T22:52:40.592Z,7.50
2023-05-14T22:55:43.629Z,7.73
2023-05-14T22:58:46.642Z,8.20
2023-05-14T23:01:49.692Z,7.47
2023-05-14T23:04:52.877Z,7.63
2023-05-14T23:07:57.281Z,7.13
2023-05-14T23:11:00.297Z,8.00
2023-05-14T23:14:03.328Z,7.80
2023-05-14T23:17:06.897Z,7.90
2023-05-14T23:20:12.600Z,8.70
2023-05-14T23:23:17.016Z,8.03
2023-05-14T23:26:20.048Z,8.93
2023-05-14T23:29:23.021Z,9.03
2023-05-14T23:32:26.108Z,8.57
2023-05-14T23:35:29.149Z,7.73
2023-05-14T23:38:34.055Z,8.17
2023-05-14T23:41:36.970Z,8.77
2023-05-14T23:44:39.997Z,8.40
2023-05-14T23:47:43.151Z,8.23
2023-05-14T23:50:46.361Z,8.10
2023-05-14T23:53:53.081Z,8.87
2023-05-14T23:56:56.120Z,8.43
2023-05-14T23:59:59.210Z,8.67
